createdAt,value
2023-02-06T00:00:15.055Z,23.50
2023-02-06T00:01:15.030Z,24.10
2023-02-06T00:02:15.030Z,23.60
2023-02-06T00:03:15.022Z,24.00
2023-02-06T00:04:15.006Z,22.90
2023-02-06T00:05:15.076Z,23.30
2023-02-06T00:06:14.975Z,23.50
2023-02-06T00:07:14.980Z,23.90
2023-02-06T00:08:14.983Z,24.20
2023-02-06T00:09:14.979Z,23.20
2023-02-06T00:10:14.970Z,23.10
2023-02-06T00:11:14.960Z,23.00
2023-02-06T00:12:14.934Z,23.40
2023-02-06T00:13:14.932Z,24.10
2023-02-06T00:14:14.933Z,23.30
2023-02-06T00:15:14.941Z,23.50
2023-02-06T00:16:14.937Z,23.10
2023-02-06T00:17:14.914Z,22.90
2023-02-06T00:18:14.933Z,23.70
2023-02-06T00:19:14.929Z,23.10
2023-02-06T00:20:14.909Z,22.60
2023-02-06T00:21:14.897Z,22.90
2023-02-06T00:22:14.898Z,22.40
2023-02-06T00:23:14.887Z,23.30
2023-02-06T00:24:14.887Z,23.50
2023-02-06T00:25:14.886Z,23.30
2023-02-06T00:26:14.866Z,22.20
2023-02-06T00:27:14.854Z,23.30
2023-02-06T00:28:14.879Z,23.10
2023-02-06T00:29:14.864Z,22.80
2023-02-06T00:30:14.867Z,23.90
2023-02-06T00:31:14.969Z,22.50
2023-02-06T00:32:14.889Z,22.90
2023-02-06T00:33:14.867Z,22.90
2023-02-06T00:34:14.904Z,23.20
2023-02-06T00:35:14.825Z,23.00
2023-02-06T00:36:14.850Z,23.40
2023-02-06T00:37:14.817Z,23.30
2023-02-06T00:38:14.814Z,22.10
2023-02-06T00:39:14.829Z,23.30
2023-02-06T00:40:14.805Z,22.60
2023-02-06T00:41:14.818Z,23.00
2023-02-06T00:42:14.803Z,23.10
2023-02-06T00:43:14.794Z,22.60
2023-02-06T00:44:14.767Z,23.30
2023-02-06T00:45:14.777Z,23.40
2023-02-06T00:46:14.857Z,22.10
2023-02-06T00:47:14.788Z,22.50
2023-02-06T00:48:14.765Z,22.10
2023-02-06T00:49:14.767Z,22.10
2023-02-06T00:50:14.743Z,23.70
2023-02-06T00:51:14.752Z,22.80
2023-02-06T00:52:14.725Z,23.30
2023-02-06T00:53:14.723Z,23.10
2023-02-06T00:54:14.727Z,24.50
2023-02-06T00:55:14.730Z,24.50
2023-02-06T00:56:14.721Z,23.10
2023-02-06T00:57:14.704Z,23.30
2023-02-06T00:58:14.723Z,22.70
2023-02-06T00:59:14.691Z,22.90
2023-02-06T01:00:14.674Z,23.60
2023-02-06T01:01:14.721Z,23.20
2023-02-06T01:02:14.653Z,23.30
2023-02-06T01:03:14.674Z,24.20
2023-02-06T01:04:14.653Z,22.90
2023-02-06T01:05:14.648Z,23.30
2023-02-06T01:06:14.650Z,23.20
2023-02-06T01:07:14.638Z,22.20
2023-02-06T01:08:14.649Z,24.00
2023-02-06T01:09:14.621Z,22.40
2023-02-06T01:10:14.628Z,23.20
2023-02-06T01:11:14.616Z,23.20
2023-02-06T01:12:14.602Z,21.90
2023-02-06T01:13:14.636Z,23.10
2023-02-06T01:14:14.585Z,22.40
2023-02-06T01:15:14.593Z,22.50
2023-02-06T01:16:14.624Z,23.00
2023-02-06T01:17:14.578Z,22.70
2023-02-06T01:18:14.564Z,23.90
2023-02-06T01:19:14.579Z,24.50
2023-02-06T01:20:14.568Z,24.40
2023-02-06T01:21:14.569Z,24.40
2023-02-06T01:22:14.571Z,23.70
2023-02-06T01:23:14.538Z,26.30
2023-02-06T01:24:14.529Z,24.10
2023-02-06T01:25:14.557Z,23.00
2023-02-06T01:26:14.554Z,22.10
2023-02-06T01:27:14.511Z,23.30
2023-02-06T01:28:14.550Z,23.80
2023-02-06T01:29:14.518Z,22.20
2023-02-06T01:30:14.503Z,22.30
2023-02-06T01:31:14.532Z,22.80
2023-02-06T01:32:14.491Z,22.90
2023-02-06T01:33:14.477Z,22.80
2023-02-06T01:34:14.504Z,22.30
2023-02-06T01:35:14.459Z,22.00
2023-02-06T01:36:14.459Z,21.60
2023-02-06T01:37:14.464Z,22.60
2023-02-06T01:38:14.454Z,23.30
2023-02-06T01:39:14.468Z,24.00
2023-02-06T01:40:14.438Z,23.90
2023-02-06T01:41:14.428Z,23.00
2023-02-06T01:42:14.418Z,23.10
2023-02-06T01:43:14.427Z,22.70
2023-02-06T01:44:14.404Z,22.10
2023-02-06T01:45:14.424Z,22.00
2023-02-06T01:46:14.439Z,21.80
2023-02-06T01:47:14.404Z,23.50
2023-02-06T01:48:14.392Z,23.00
2023-02-06T01:49:14.391Z,22.00
2023-02-06T01:50:14.387Z,22.80
2023-02-06T01:51:14.399Z,22.70
2023-02-06T01:52:14.498Z,22.00
2023-02-06T01:53:14.377Z,23.70
2023-02-06T01:54:14.358Z,22.10
2023-02-06T01:55:14.359Z,22.70
2023-02-06T01:56:14.365Z,22.60
2023-02-06T01:57:14.338Z,22.40
2023-02-06T01:58:14.338Z,22.90
2023-02-06T01:59:14.336Z,23.20
2023-02-06T02:00:14.331Z,21.00
2023-02-06T02:01:14.329Z,21.70
2023-02-06T02:02:14.374Z,22.00
2023-02-06T02:03:14.311Z,21.70
2023-02-06T02:04:14.296Z,23.40
2023-02-06T02:05:14.309Z,22.20
2023-02-06T02:06:14.287Z,22.80
2023-02-06T02:07:14.281Z,22.00
2023-02-06T02:08:14.308Z,21.50
2023-02-06T02:09:14.446Z,22.60
2023-02-06T02:10:14.282Z,20.70
2023-02-06T02:11:14.302Z,22.00
2023-02-06T02:12:14.285Z,21.70
2023-02-06T02:13:14.256Z,23.10
2023-02-06T02:14:14.248Z,22.20
2023-02-06T02:15:14.270Z,23.30
2023-02-06T02:16:14.276Z,24.40
2023-02-06T02:17:14.236Z,24.00
2023-02-06T02:18:14.259Z,25.90
2023-02-06T02:19:14.230Z,24.90
2023-02-06T02:20:14.247Z,23.60
2023-02-06T02:21:14.217Z,22.20
2023-02-06T02:22:14.213Z,22.20
2023-02-06T02:23:14.209Z,21.90
2023-02-06T02:24:14.227Z,22.80
2023-02-06T02:25:14.194Z,23.50
2023-02-06T02:26:14.194Z,23.00
2023-02-06T02:27:14.172Z,23.10
2023-02-06T02:28:14.207Z,23.40
2023-02-06T02:29:14.159Z,22.60
2023-02-06T02:30:14.183Z,22.60
2023-02-06T02:31:14.220Z,24.10
2023-02-06T02:32:14.149Z,24.10
2023-02-06T02:33:14.138Z,23.90
2023-02-06T02:34:14.130Z,26.80
2023-02-06T02:35:14.133Z,28.70
2023-02-06T02:36:14.142Z,24.60
2023-02-06T02:37:14.120Z,26.70
2023-02-06T02:38:14.124Z,28.30
2023-02-06T02:39:14.104Z,33.30
2023-02-06T02:40:14.091Z,50.00
2023-02-06T02:41:14.143Z,30.40
2023-02-06T02:42:14.085Z,32.70
2023-02-06T02:43:14.104Z,30.70
2023-02-06T02:44:21.122Z,28.20
2023-02-06T02:45:14.073Z,26.70
2023-02-06T02:46:14.084Z,25.40
2023-02-06T02:47:14.081Z,25.40
2023-02-06T02:48:14.044Z,25.40
2023-02-06T02:49:14.068Z,25.90
2023-02-06T02:50:14.040Z,27.20
2023-02-06T02:51:14.028Z,27.30
2023-02-06T02:52:14.014Z,27.00
2023-02-06T02:53:14.045Z,25.10
2023-02-06T02:54:14.010Z,24.70
2023-02-06T02:55:14.003Z,24.70
2023-02-06T02:56:14.111Z,25.30
2023-02-06T02:57:13.996Z,24.60
2023-02-06T02:58:13.978Z,25.50
2023-02-06T02:59:14.005Z,26.00
2023-02-06T03:00:13.974Z,25.70
2023-02-06T03:01:13.981Z,25.30
2023-02-06T03:02:13.996Z,25.80
2023-02-06T03:03:13.957Z,25.80
2023-02-06T03:04:13.950Z,25.20
2023-02-06T03:05:13.967Z,25.20
2023-02-06T03:06:13.952Z,25.70
2023-02-06T03:07:13.927Z,26.00
2023-02-06T03:08:13.939Z,26.40
2023-02-06T03:09:13.912Z,26.00
2023-02-06T03:10:13.907Z,26.60
2023-02-06T03:11:13.949Z,25.60
2023-02-06T03:12:13.889Z,24.80
2023-02-06T03:13:13.890Z,25.80
2023-02-06T03:14:13.878Z,24.10
2023-02-06T03:15:13.877Z,25.70
2023-02-06T03:16:13.936Z,25.00
2023-02-06T03:17:13.869Z,25.00
2023-02-06T03:18:13.859Z,25.70
2023-02-06T03:19:13.850Z,26.20
2023-02-06T03:20:13.855Z,27.00
2023-02-06T03:21:13.865Z,26.90
2023-02-06T03:22:13.852Z,27.30
2023-02-06T03:23:13.834Z,26.30
2023-02-06T03:24:13.822Z,25.70
2023-02-06T03:25:13.846Z,26.00
2023-02-06T03:26:13.808Z,27.50
2023-02-06T03:27:13.835Z,26.60
2023-02-06T03:28:13.845Z,26.80
2023-02-06T03:29:13.791Z,25.80
2023-02-06T03:30:13.777Z,26.30
2023-02-06T03:31:13.791Z,26.20
2023-02-06T03:32:13.768Z,27.40
2023-02-06T03:33:13.759Z,26.60
2023-02-06T03:34:13.755Z,26.30
2023-02-06T03:35:13.766Z,27.00
2023-02-06T03:36:13.739Z,27.80
2023-02-06T03:37:13.739Z,27.50
2023-02-06T03:38:13.730Z,26.10
2023-02-06T03:39:13.721Z,26.50
2023-02-06T03:40:13.742Z,26.60
2023-02-06T03:41:13.722Z,26.90
2023-02-06T03:42:13.719Z,25.40
2023-02-06T03:44:46.750Z,26.70
2023-02-06T03:45:40.380Z,27.00
2023-02-06T03:46:40.231Z,26.70
2023-02-06T03:47:40.224Z,28.50
2023-02-06T03:48:40.204Z,28.60
2023-02-06T03:49:40.221Z,27.40
2023-02-06T03:50:40.207Z,31.00
2023-02-06T03:51:40.179Z,29.40
2023-02-06T03:52:40.191Z,30.60
2023-02-06T03:53:40.168Z,26.90
2023-02-06T03:54:40.174Z,27.20
2023-02-06T03:55:40.173Z,27.50
2023-02-06T03:56:40.163Z,28.90
2023-02-06T03:57:40.150Z,28.90
2023-02-06T03:59:50.573Z,25.80
2023-02-06T04:00:50.592Z,26.90
2023-02-06T04:01:50.569Z,27.30
2023-02-06T04:02:50.558Z,26.80
2023-02-06T04:03:50.552Z,28.10
2023-02-06T04:04:50.548Z,27.40
2023-02-06T04:05:50.549Z,27.70
2023-02-06T04:06:50.559Z,28.00
2023-02-06T04:07:50.531Z,28.70
2023-02-06T04:08:50.526Z,29.60
2023-02-06T04:09:50.521Z,29.00
2023-02-06T04:10:50.516Z,28.50
2023-02-06T04:11:50.503Z,29.10
2023-02-06T04:12:50.505Z,30.10
2023-02-06T04:13:50.507Z,28.10
2023-02-06T04:14:50.480Z,28.40
2023-02-06T04:15:50.480Z,28.50
2023-02-06T04:16:50.491Z,30.10
2023-02-06T04:17:59.840Z,29.60
2023-02-06T04:18:50.459Z,28.40
2023-02-06T04:19:50.477Z,28.50
2023-02-06T04:20:50.444Z,27.80
2023-02-06T04:21:50.447Z,28.10
2023-02-06T04:22:50.432Z,28.90
2023-02-06T04:23:50.441Z,29.60
2023-02-06T04:24:50.427Z,28.30
2023-02-06T04:25:50.439Z,27.60
2023-02-06T04:26:50.444Z,27.70
2023-02-06T04:27:50.448Z,27.70
2023-02-06T04:28:50.424Z,29.80
2023-02-06T04:29:50.400Z,26.60
2023-02-06T04:30:50.548Z,29.20
2023-02-06T04:31:50.390Z,28.30
2023-02-06T04:32:50.384Z,28.30
2023-02-06T04:33:50.395Z,28.10
2023-02-06T04:34:50.372Z,28.80
2023-02-06T04:35:50.360Z,27.80
2023-02-06T04:36:50.354Z,28.40
2023-02-06T04:37:50.363Z,26.00
2023-02-06T04:38:50.350Z,26.40
2023-02-06T04:39:50.364Z,28.80
2023-02-06T04:40:50.328Z,31.60
2023-02-06T04:41:50.324Z,32.10
2023-02-06T04:42:50.319Z,29.00
2023-02-06T04:43:50.353Z,28.10
2023-02-06T04:44:50.294Z,28.10
2023-02-06T04:45:50.321Z,27.60
2023-02-06T04:46:50.291Z,27.50
2023-02-06T04:47:50.286Z,10.70
2023-02-06T04:48:50.276Z,19.50
2023-02-06T04:49:50.307Z,22.70
2023-02-06T04:50:50.271Z,26.00
2023-02-06T04:51:50.265Z,23.60
2023-02-06T04:52:50.286Z,24.90
2023-02-06T04:53:50.257Z,26.30
2023-02-06T04:54:50.239Z,26.80
2023-02-06T04:55:50.254Z,27.40
2023-02-06T04:56:50.227Z,27.90
2023-02-06T04:57:50.246Z,26.70
2023-02-06T04:58:50.227Z,25.00
2023-02-06T04:59:50.221Z,24.90
2023-02-06T05:00:50.206Z,26.70
2023-02-06T05:01:50.229Z,28.60
2023-02-06T05:02:50.238Z,27.20
2023-02-06T05:03:50.361Z,30.20
2023-02-06T05:04:50.177Z,27.20
2023-02-06T05:05:50.170Z,27.90
2023-02-06T05:06:50.170Z,27.40
2023-02-06T05:07:50.155Z,29.50
2023-02-06T05:08:50.170Z,29.60
2023-02-06T05:09:50.144Z,30.10
2023-02-06T05:10:50.138Z,33.30
2023-02-06T05:11:50.133Z,30.50
2023-02-06T05:12:50.119Z,29.90
2023-02-06T05:13:50.126Z,29.90
2023-02-06T05:14:50.125Z,30.80
2023-02-06T05:15:50.130Z,29.30
2023-02-06T05:16:50.120Z,30.30
2023-02-06T05:17:50.087Z,30.10
2023-02-06T05:18:50.079Z,28.40
2023-02-06T05:19:50.103Z,29.10
2023-02-06T05:20:50.100Z,30.10
2023-02-06T05:21:50.062Z,30.20
2023-02-06T05:22:50.049Z,31.40
2023-02-06T05:23:50.051Z,29.30
2023-02-06T05:24:50.041Z,29.80
2023-02-06T05:25:50.056Z,29.30
2023-02-06T05:26:50.038Z,30.90
2023-02-06T05:27:50.050Z,30.60
2023-02-06T05:28:50.033Z,30.80
2023-02-06T05:29:50.039Z,29.20
2023-02-06T05:30:50.057Z,29.60
2023-02-06T05:31:50.054Z,31.30
2023-02-06T05:32:50.003Z,29.90
2023-02-06T05:33:52.216Z,29.50
2023-02-06T05:34:50.017Z,27.10
2023-02-06T05:35:49.982Z,29.30
2023-02-06T05:36:49.983Z,28.20
2023-02-06T05:37:49.972Z,28.20
2023-02-06T05:38:49.969Z,27.30
2023-02-06T05:39:49.951Z,26.60
2023-02-06T05:40:49.941Z,26.70
2023-02-06T05:41:49.937Z,27.40
2023-02-06T05:42:49.944Z,28.30
2023-02-06T05:43:49.915Z,25.90
2023-02-06T05:44:49.922Z,25.80
2023-02-06T05:45:49.913Z,27.00
2023-02-06T05:46:49.901Z,25.30
2023-02-06T05:47:49.898Z,24.70
2023-02-06T05:48:49.912Z,25.00
2023-02-06T05:49:49.898Z,22.20
2023-02-06T05:50:49.879Z,19.60
2023-02-06T05:51:49.873Z,19.10
2023-02-06T05:52:49.877Z,18.00
2023-02-06T05:53:49.867Z,22.00
2023-02-06T05:54:49.885Z,26.20
2023-02-06T05:55:49.857Z,21.80
2023-02-06T05:56:49.866Z,19.10
2023-02-06T05:57:49.839Z,19.30
2023-02-06T05:58:49.831Z,18.80
2023-02-06T05:59:49.862Z,19.30
2023-02-06T06:00:49.826Z,16.80
2023-02-06T06:01:49.817Z,16.90
2023-02-06T06:02:49.815Z,19.50
2023-02-06T06:03:49.872Z,26.90
2023-02-06T06:04:49.819Z,25.30
2023-02-06T06:05:49.825Z,20.40
2023-02-06T06:06:49.778Z,23.00
2023-02-06T06:07:49.780Z,21.30
2023-02-06T06:08:49.773Z,20.90
2023-02-06T06:09:49.759Z,21.40
2023-02-06T06:10:49.756Z,22.60
2023-02-06T06:11:49.807Z,23.10
2023-02-06T06:12:49.742Z,22.60
2023-02-06T06:13:49.746Z,22.10
2023-02-06T06:14:49.730Z,19.60
2023-02-06T06:15:49.767Z,18.10
2023-02-06T06:16:49.718Z,16.90
2023-02-06T06:17:49.741Z,13.80
2023-02-06T06:18:49.708Z,11.50
2023-02-06T06:19:49.714Z,11.60
2023-02-06T06:20:49.721Z,9.70
2023-02-06T06:21:49.698Z,8.60
2023-02-06T06:22:49.696Z,7.70
2023-02-06T06:23:49.677Z,8.60
2023-02-06T06:24:49.677Z,8.90
2023-02-06T06:25:49.691Z,8.10
2023-02-06T06:26:49.657Z,9.00
2023-02-06T06:27:49.668Z,7.30
2023-02-06T06:28:49.638Z,8.40
2023-02-06T06:29:49.652Z,7.80
2023-02-06T06:30:49.677Z,7.30
2023-02-06T06:31:49.669Z,7.40
2023-02-06T06:32:49.614Z,7.50
2023-02-06T06:33:49.626Z,7.30
2023-02-06T06:34:49.608Z,7.40
2023-02-06T06:35:49.619Z,8.00
2023-02-06T06:36:49.612Z,7.70
2023-02-06T06:37:49.594Z,7.40
2023-02-06T06:38:49.584Z,7.20
2023-02-06T06:39:49.586Z,7.10
2023-02-06T06:40:49.566Z,7.20
2023-02-06T06:41:49.558Z,6.30
2023-02-06T06:42:49.569Z,5.50
2023-02-06T06:43:51.467Z,5.20
2023-02-06T06:44:49.545Z,5.30
2023-02-06T06:45:49.557Z,4.90
2023-02-06T06:46:49.547Z,5.70
2023-02-06T06:47:49.521Z,6.50
2023-02-06T06:48:49.514Z,7.00
2023-02-06T06:49:49.507Z,6.60
2023-02-06T06:50:49.504Z,6.70
2023-02-06T06:51:49.500Z,6.80
2023-02-06T06:52:49.527Z,6.50
2023-02-06T06:53:49.488Z,7.50
2023-02-06T06:54:50.902Z,7.60
2023-02-06T06:55:49.563Z,7.60
2023-02-06T06:56:49.465Z,10.00
2023-02-06T06:57:49.457Z,18.40
2023-02-06T06:58:49.450Z,19.90
2023-02-06T06:59:49.448Z,20.30
2023-02-06T07:00:49.475Z,19.20
2023-02-06T07:01:49.431Z,18.10
2023-02-06T07:02:49.490Z,14.10
2023-02-06T07:03:49.440Z,11.40
2023-02-06T07:04:49.427Z,10.70
2023-02-06T07:05:50.775Z,11.40
2023-02-06T07:06:49.436Z,10.60
2023-02-06T07:07:49.416Z,10.50
2023-02-06T07:08:49.391Z,9.50
2023-02-06T07:09:49.380Z,8.40
2023-02-06T07:10:49.378Z,8.80
2023-02-06T07:11:49.368Z,8.50
2023-02-06T07:12:49.371Z,7.80
2023-02-06T07:13:49.392Z,8.20
2023-02-06T07:14:49.351Z,8.00
2023-02-06T07:15:49.358Z,8.20
2023-02-06T07:16:49.343Z,9.50
2023-02-06T07:17:49.366Z,10.60
2023-02-06T07:18:49.327Z,9.40
2023-02-06T07:19:49.320Z,10.60
2023-02-06T07:20:49.313Z,12.00
2023-02-06T07:21:49.326Z,15.70
2023-02-06T07:22:49.313Z,16.10
2023-02-06T07:23:49.302Z,15.20
2023-02-06T07:24:49.311Z,14.50
2023-02-06T07:25:49.303Z,15.40
2023-02-06T07:26:49.275Z,16.20
2023-02-06T07:27:49.431Z,13.90
2023-02-06T07:28:49.268Z,16.30
2023-02-06T07:29:49.318Z,16.00
2023-02-06T07:30:49.292Z,17.10
2023-02-06T07:31:49.276Z,17.00
2023-02-06T07:32:49.269Z,17.10
2023-02-06T07:33:49.242Z,15.80
2023-02-06T07:34:49.236Z,17.00
2023-02-06T07:35:49.260Z,18.10
2023-02-06T07:36:49.229Z,19.00
2023-02-06T07:37:49.213Z,19.60
2023-02-06T07:38:49.210Z,18.30
2023-02-06T07:39:49.209Z,18.80
2023-02-06T07:40:49.195Z,20.80
2023-02-06T07:41:49.210Z,18.20
2023-02-06T07:42:49.191Z,18.20
2023-02-06T07:43:49.210Z,16.50
2023-02-06T07:44:49.177Z,16.10
2023-02-06T07:45:49.204Z,16.20
2023-02-06T07:46:49.190Z,15.30
2023-02-06T07:47:49.168Z,15.30
2023-02-06T07:48:49.149Z,16.00
2023-02-06T07:49:49.145Z,15.50
2023-02-06T07:50:49.162Z,13.30
2023-02-06T07:51:49.152Z,13.20
2023-02-06T07:52:49.143Z,13.50
2023-02-06T07:53:49.129Z,13.70
2023-02-06T07:54:49.118Z,12.90
2023-02-06T07:55:49.124Z,13.70
2023-02-06T07:56:49.107Z,13.90
2023-02-06T07:57:49.143Z,13.00
2023-02-06T07:58:49.100Z,9.40
2023-02-06T07:59:49.106Z,12.70
2023-02-06T08:00:49.125Z,12.80
2023-02-06T08:01:49.091Z,13.10
2023-02-06T08:02:49.077Z,12.70
2023-02-06T08:03:49.100Z,12.20
2023-02-06T08:04:49.063Z,11.80
2023-02-06T08:05:49.080Z,10.50
2023-02-06T08:06:49.069Z,10.20
2023-02-06T08:07:49.055Z,10.40
2023-02-06T08:08:49.052Z,9.90
2023-02-06T08:09:49.046Z,10.60
2023-02-06T08:10:49.033Z,10.20
2023-02-06T08:11:49.071Z,8.90
2023-02-06T08:12:49.039Z,9.80
2023-02-06T08:13:49.018Z,9.20
2023-02-06T08:14:49.004Z,9.40
2023-02-06T08:15:49.029Z,8.60
2023-02-06T08:16:49.027Z,9.00
2023-02-06T08:17:48.986Z,8.80
2023-02-06T08:18:48.977Z,8.10
2023-02-06T08:19:48.984Z,9.50
2023-02-06T08:20:48.971Z,8.00
2023-02-06T08:21:48.986Z,8.20
2023-02-06T08:22:48.961Z,8.30
2023-02-06T08:23:48.982Z,8.60
2023-02-06T08:24:48.946Z,9.10
2023-02-06T08:25:48.952Z,8.90
2023-02-06T08:26:48.964Z,7.10
2023-02-06T08:27:48.948Z,8.10
2023-02-06T08:28:48.914Z,8.60
2023-02-06T08:29:48.914Z,8.60
2023-02-06T08:30:49.048Z,8.40
2023-02-06T08:31:48.961Z,8.00
2023-02-06T08:32:48.898Z,8.00
2023-02-06T08:33:48.881Z,7.80
2023-02-06T08:34:48.876Z,7.20
2023-02-06T08:35:48.886Z,7.00
2023-02-06T08:36:48.877Z,7.20
2023-02-06T08:37:48.878Z,7.50
2023-02-06T08:38:48.854Z,7.60
2023-02-06T08:39:48.882Z,7.60
2023-02-06T08:40:48.838Z,7.50
2023-02-06T08:41:48.841Z,7.60
2023-02-06T08:42:48.835Z,7.60
2023-02-06T08:43:48.834Z,7.20
2023-02-06T08:44:48.822Z,6.50
2023-02-06T08:45:48.874Z,6.00
2023-02-06T08:46:52.291Z,6.00
2023-02-06T08:47:49.800Z,6.10
2023-02-06T08:48:48.812Z,6.90
2023-02-06T08:49:48.796Z,6.70
2023-02-06T08:50:48.812Z,6.80
2023-02-06T08:51:48.771Z,7.00
2023-02-06T08:52:48.779Z,7.10
2023-02-06T08:53:48.778Z,6.50
2023-02-06T08:54:48.784Z,6.30
2023-02-06T08:55:48.770Z,6.40
2023-02-06T08:56:48.791Z,6.40
2023-02-06T08:57:48.759Z,6.50
2023-02-06T08:58:48.734Z,6.60
2023-02-06T08:59:48.729Z,6.30
2023-02-06T09:00:48.723Z,5.80
2023-02-06T09:01:48.775Z,6.30
2023-02-06T09:02:48.768Z,7.00
2023-02-06T09:03:48.705Z,6.70
2023-02-06T09:04:48.695Z,6.70
2023-02-06T09:05:48.707Z,6.70
2023-02-06T09:06:48.704Z,7.00
2023-02-06T09:07:48.676Z,7.10
2023-02-06T09:08:48.679Z,7.50
2023-02-06T09:09:48.655Z,7.10
2023-02-06T09:10:48.652Z,7.60
2023-02-06T09:11:48.681Z,7.40
2023-02-06T09:12:48.635Z,7.30
2023-02-06T09:13:49.447Z,7.80
2023-02-06T09:14:48.685Z,7.90
2023-02-06T09:15:48.638Z,7.40
2023-02-06T09:16:48.605Z,7.50
2023-02-06T09:17:48.601Z,7.70
2023-02-06T09:18:48.674Z,7.70
2023-02-06T09:19:48.849Z,7.10
2023-02-06T09:20:48.595Z,7.50
2023-02-06T09:21:48.564Z,7.90
2023-02-06T09:22:48.589Z,7.50
2023-02-06T09:23:48.561Z,7.80
2023-02-06T09:24:48.545Z,7.40
2023-02-06T09:25:48.561Z,7.40
2023-02-06T09:27:00.933Z,7.50
2023-02-06T09:27:49.590Z,7.40
2023-02-06T09:28:48.527Z,7.50
2023-02-06T09:29:48.525Z,7.10
2023-02-06T09:30:48.666Z,7.80
2023-02-06T09:31:48.511Z,7.20
2023-02-06T09:32:48.517Z,6.70
2023-02-06T09:33:48.498Z,6.90
2023-02-06T09:34:49.277Z,6.60
2023-02-06T09:35:48.495Z,7.00
2023-02-06T09:36:48.478Z,6.90
2023-02-06T09:37:48.477Z,6.90
2023-02-06T09:38:48.496Z,6.50
2023-02-06T09:39:48.486Z,6.60
2023-02-06T09:40:48.461Z,6.70
2023-02-06T09:41:48.453Z,7.00
2023-02-06T09:42:48.473Z,6.80
2023-02-06T09:43:48.437Z,6.60
2023-02-06T09:44:48.430Z,6.40
2023-02-06T09:45:48.436Z,6.10
2023-02-06T09:46:48.419Z,5.70
2023-02-06T09:47:48.427Z,5.80
2023-02-06T09:48:48.425Z,6.50
2023-02-06T09:49:48.399Z,5.60
2023-02-06T09:50:48.418Z,5.40
2023-02-06T09:51:48.501Z,5.80
2023-02-06T09:52:48.387Z,5.60
2023-02-06T09:53:48.388Z,5.20
2023-02-06T09:54:48.375Z,5.30
2023-02-06T09:55:48.365Z,5.60
2023-02-06T09:56:48.385Z,5.30
2023-02-06T09:57:48.377Z,5.40
2023-02-06T09:58:48.364Z,5.00
2023-02-06T10:01:02.543Z,4.90
2023-02-06T10:02:02.578Z,5.20
2023-02-06T10:03:02.563Z,5.30
2023-02-06T10:04:02.606Z,5.30
2023-02-06T10:05:02.548Z,4.90
2023-02-06T10:06:02.555Z,5.10
2023-02-06T10:07:02.556Z,4.90
2023-02-06T10:08:02.552Z,5.10
2023-02-06T10:09:02.519Z,4.70
2023-02-06T10:10:02.513Z,5.10
2023-02-06T10:11:02.513Z,4.90
2023-02-06T10:12:02.497Z,5.00
2023-02-06T10:13:02.504Z,5.20
2023-02-06T10:14:02.508Z,4.80
2023-02-06T10:15:02.469Z,4.80
2023-02-06T10:16:02.499Z,4.40
2023-02-06T10:17:02.482Z,4.80
2023-02-06T10:18:02.464Z,4.40
2023-02-06T10:19:02.463Z,4.60
2023-02-06T10:20:02.456Z,4.90
2023-02-06T10:21:02.427Z,4.50
2023-02-06T10:22:02.424Z,4.50
2023-02-06T10:23:02.411Z,4.80
2023-02-06T10:24:02.404Z,4.90
2023-02-06T10:25:02.418Z,4.60
2023-02-06T10:26:02.408Z,4.80
2023-02-06T10:27:02.386Z,5.20
2023-02-06T10:28:02.456Z,4.90
2023-02-06T10:29:02.372Z,4.90
2023-02-06T10:30:02.360Z,4.60
2023-02-06T10:31:02.474Z,5.50
2023-02-06T10:32:02.361Z,5.10
2023-02-06T10:33:02.350Z,5.60
2023-02-06T10:34:02.347Z,5.10
2023-02-06T10:35:02.346Z,4.80
2023-02-06T10:36:02.331Z,5.40
2023-02-06T10:37:02.319Z,4.80
2023-02-06T10:38:02.309Z,4.70
2023-02-06T10:39:02.327Z,5.00
2023-02-06T10:40:02.322Z,4.40
2023-02-06T10:41:02.295Z,4.90
2023-02-06T10:42:02.282Z,4.40
2023-02-06T10:43:02.296Z,4.20
2023-02-06T10:44:02.294Z,4.60
2023-02-06T10:45:18.474Z,4.30
2023-02-06T10:46:03.289Z,4.60
2023-02-06T10:47:02.357Z,4.80
2023-02-06T10:48:02.273Z,4.40
2023-02-06T10:49:02.224Z,4.40
2023-02-06T10:50:02.243Z,4.70
2023-02-06T10:51:02.249Z,4.70
2023-02-06T10:52:02.209Z,4.90
2023-02-06T10:53:02.215Z,5.00
2023-02-06T10:54:02.201Z,4.60
2023-02-06T10:55:02.188Z,4.40
2023-02-06T10:56:02.216Z,4.60
2023-02-06T10:57:02.177Z,4.50
2023-02-06T10:58:02.186Z,4.30
2023-02-06T10:59:02.156Z,4.50
2023-02-06T11:00:02.159Z,4.90
2023-02-06T11:01:02.193Z,5.20
2023-02-06T11:02:02.173Z,4.80
2023-02-06T11:03:07.727Z,4.90
2023-02-06T11:04:03.138Z,4.90
2023-02-06T11:05:02.113Z,4.80
2023-02-06T11:06:02.115Z,4.80
2023-02-06T11:07:02.102Z,4.70
2023-02-06T11:08:02.116Z,4.60
2023-02-06T11:09:02.084Z,4.90
2023-02-06T11:10:02.110Z,4.30
2023-02-06T11:11:02.077Z,4.50
2023-02-06T11:12:02.080Z,4.40
2023-02-06T11:13:02.101Z,4.40
2023-02-06T11:14:02.062Z,4.30
2023-02-06T11:15:02.045Z,4.40
2023-02-06T11:16:02.068Z,4.00
2023-02-06T11:17:02.057Z,4.40
2023-02-06T11:18:02.023Z,4.10
2023-02-06T11:19:02.012Z,4.10
2023-02-06T11:20:02.031Z,3.80
2023-02-06T11:21:01.998Z,4.00
2023-02-06T11:22:01.986Z,4.20
2023-02-06T11:23:02.004Z,4.50
2023-02-06T11:24:01.999Z,4.20
2023-02-06T11:25:01.973Z,3.90
2023-02-06T11:26:01.964Z,4.00
2023-02-06T11:27:01.970Z,4.40
2023-02-06T11:28:01.997Z,4.20
2023-02-06T11:29:01.948Z,4.30
2023-02-06T11:30:02.004Z,4.20
2023-02-06T11:31:02.013Z,4.20
2023-02-06T11:32:01.975Z,4.20
2023-02-06T11:33:04.663Z,4.20
2023-02-06T11:34:01.919Z,4.10
2023-02-06T11:35:01.909Z,4.20
2023-02-06T11:36:01.902Z,3.70
2023-02-06T11:37:01.921Z,4.20
2023-02-06T11:38:02.864Z,4.30
2023-02-06T11:39:01.913Z,4.10
2023-02-06T11:40:01.930Z,3.50
2023-02-06T11:41:01.882Z,3.60
2023-02-06T11:42:01.872Z,3.90
2023-02-06T11:43:01.851Z,3.70
2023-02-06T11:44:01.836Z,3.70
2023-02-06T11:45:01.829Z,4.30
2023-02-06T11:46:01.920Z,4.00
2023-02-06T11:47:01.849Z,3.90
2023-02-06T11:48:01.829Z,3.70
2023-02-06T11:49:01.811Z,4.20
2023-02-06T11:50:01.806Z,4.00
2023-02-06T11:51:01.825Z,4.80
2023-02-06T11:52:01.869Z,3.50
2023-02-06T11:53:01.810Z,3.90
2023-02-06T11:54:01.778Z,4.30
2023-02-06T11:55:01.811Z,5.10
2023-02-06T11:56:01.773Z,3.40
2023-02-06T11:57:01.760Z,3.80
2023-02-06T11:58:01.778Z,3.50
2023-02-06T11:59:01.758Z,3.70
2023-02-06T12:00:01.790Z,3.50
2023-02-06T12:01:01.737Z,3.70
2023-02-06T12:02:01.785Z,3.40
2023-02-06T12:03:01.718Z,3.80
2023-02-06T12:04:01.736Z,3.70
2023-02-06T12:05:01.717Z,3.60
2023-02-06T12:06:03.111Z,3.30
2023-02-06T12:07:01.705Z,3.30
2023-02-06T12:08:01.733Z,3.40
2023-02-06T12:09:01.720Z,3.40
2023-02-06T12:10:01.705Z,10.30
2023-02-06T12:11:01.679Z,3.50
2023-02-06T12:12:01.676Z,3.90
2023-02-06T12:13:01.673Z,3.60
2023-02-06T12:14:01.660Z,3.20
2023-02-06T12:15:13.866Z,3.30
2023-02-06T12:16:02.660Z,3.50
2023-02-06T12:17:01.644Z,3.30
2023-02-06T12:18:01.648Z,3.30
2023-02-06T12:19:01.622Z,3.40
2023-02-06T12:20:01.642Z,3.40
2023-02-06T12:21:01.620Z,3.00
2023-02-06T12:22:01.629Z,3.20
2023-02-06T12:23:01.617Z,3.80
2023-02-06T12:24:01.595Z,3.30
2023-02-06T12:25:01.604Z,3.40
2023-02-06T12:26:01.629Z,3.00
2023-02-06T12:27:01.586Z,2.90
2023-02-06T12:28:01.640Z,3.00
2023-02-06T12:29:01.561Z,3.30
2023-02-06T12:30:01.555Z,3.00
2023-02-06T12:31:01.697Z,3.10
2023-02-06T12:32:01.584Z,3.20
2023-02-06T12:33:01.594Z,3.10
2023-02-06T12:34:01.548Z,3.00
2023-02-06T12:35:01.530Z,3.90
2023-02-06T12:36:01.532Z,3.30
2023-02-06T12:37:01.507Z,3.00
2023-02-06T12:38:01.548Z,2.90
2023-02-06T12:39:01.491Z,2.80
2023-02-06T12:40:01.513Z,2.70
2023-02-06T12:41:01.471Z,3.00
2023-02-06T12:42:01.466Z,2.80
2023-02-06T12:43:01.473Z,2.70
2023-02-06T12:44:01.454Z,2.80
2023-02-06T12:45:01.465Z,3.00
2023-02-06T12:46:01.474Z,2.90
2023-02-06T12:47:01.447Z,3.10
2023-02-06T12:48:01.429Z,3.20
2023-02-06T12:49:01.429Z,2.80
2023-02-06T12:50:01.497Z,2.90
2023-02-06T12:51:01.426Z,2.80
2023-02-06T12:52:01.412Z,3.20
2023-02-06T12:53:01.392Z,3.00
2023-02-06T12:54:01.399Z,3.00
2023-02-06T12:55:01.377Z,3.30
2023-02-06T12:56:01.396Z,3.00
2023-02-06T12:57:01.376Z,3.20
2023-02-06T12:58:01.372Z,2.90
2023-02-06T12:59:01.374Z,3.10
2023-02-06T13:00:01.383Z,3.20
2023-02-06T13:01:01.388Z,2.60
2023-02-06T13:02:01.409Z,2.70
2023-02-06T13:03:01.435Z,2.70
2023-02-06T13:04:01.367Z,2.70
2023-02-06T13:05:01.381Z,3.20
2023-02-06T13:06:01.347Z,3.20
2023-02-06T13:07:01.375Z,2.70